Time;durP1;ratioP1;P1;durP2;ratioP2;P2;SDS_P1;SDS_P2;PMS_P1;PMS_P2;Temp;Humidity;BMP_temperature;BMP_pressure;BME280_temperature;BME280_humidity;BME280_pressure;Samples;Min_cycle;Max_cycle;Signal;HPM_P1;HPM_P2
2022/05/15 00:01:33;;;;;;;6.68;2.40;;;9.10;99.90;;;;;;4761468;30;20062;-88
2022/05/15 00:04:00;;;;;;;6.97;2.08;;;9.30;99.90;;;;;;4771785;30;20139;-89
2022/05/15 00:06:25;;;;;;;5.85;1.92;;;9.00;99.90;;;;;;4770899;30;20513;-88
2022/05/15 00:08:51;;;;;;;10.77;3.38;;;9.00;99.90;;;;;;4770308;30;20059;-87
2022/05/15 00:11:17;;;;;;;3.80;1.80;;;9.10;99.90;;;;;;4755286;30;20398;-86
2022/05/15 00:13:44;;;;;;;4.97;2.35;;;9.00;99.90;;;;;;4772866;30;20091;-88
2022/05/15 00:16:10;;;;;;;4.68;1.52;;;9.30;99.90;;;;;;4761790;30;20103;-87
2022/05/15 00:18:38;;;;;;;3.20;1.60;;;8.90;99.90;;;;;;4757864;30;20064;-87
2022/05/15 00:21:04;;;;;;;6.35;1.95;;;9.90;99.90;;;;;;4780616;30;20059;-87
2022/05/15 00:23:30;;;;;;;9.05;2.38;;;9.80;99.90;;;;;;4773631;30;20425;-87
2022/05/15 00:25:56;;;;;;;4.90;1.77;;;9.50;99.90;;;;;;4773514;30;20126;-88
2022/05/15 00:28:22;;;;;;;4.07;1.83;;;8.90;99.90;;;;;;4771322;30;20519;-88
2022/05/15 00:30:48;;;;;;;7.00;1.83;;;9.30;99.90;;;;;;4770555;30;20145;-89
2022/05/15 00:33:14;;;;;;;4.00;2.15;;;8.90;99.90;;;;;;4754720;30;20064;-89
2022/05/15 00:39:36;;;;;;;5.78;1.95;;;8.80;99.90;;;;;;4772400;30;20400;-87
2022/05/15 00:42:09;;;;;;;7.07;2.33;;;9.10;99.90;;;;;;4776809;30;20405;-91
2022/05/15 00:44:37;;;;;;;5.55;2.22;;;8.70;99.90;;;;;;4754171;30;20456;-88
2022/05/15 00:47:04;;;;;;;5.03;1.80;;;8.70;99.90;;;;;;4770587;30;20043;-89
2022/05/15 00:49:32;;;;;;;4.80;1.98;;;8.70;99.90;;;;;;4777046;30;20115;-87
2022/05/15 00:52:03;;;;;;;4.20;1.77;;;8.70;99.90;;;;;;4761396;30;20047;-88
2022/05/15 00:54:36;;;;;;;4.95;1.90;;;8.70;99.90;;;;;;4770324;30;20055;-88
2022/05/15 00:57:23;;;;;;;3.05;1.58;;;8.60;99.90;;;;;;4761167;30;20121;-90
2022/05/15 01:00:09;;;;;;;2.08;1.13;;;8.60;99.90;;;;;;4732773;30;20068;-88
2022/05/15 01:02:42;;;;;;;2.03;1.10;;;8.50;99.90;;;;;;4732467;30;20110;-89
2022/05/15 01:05:10;;;;;;;2.13;1.00;;;9.30;99.90;;;;;;4732769;30;20052;-88
2022/05/15 01:07:35;;;;;;;2.00;1.40;;;8.60;99.90;;;;;;4732200;30;20557;-90
2022/05/15 01:10:03;;;;;;;2.67;1.05;;;8.90;99.90;;;;;;4732903;30;20048;-88
2022/05/15 01:12:29;;;;;;;5.28;1.30;;;9.00;99.90;;;;;;4732626;30;20151;-89
2022/05/15 01:14:56;;;;;;;5.15;1.20;;;8.60;99.90;;;;;;4717875;30;20068;-89
2022/05/15 01:17:21;;;;;;;2.95;1.00;;;8.80;99.90;;;;;;4732833;30;20439;-89
2022/05/15 01:19:47;;;;;;;3.22;1.05;;;8.30;99.90;;;;;;4732510;30;20052;-89
2022/05/15 01:22:15;;;;;;;3.45;1.00;;;8.30;99.90;;;;;;4732321;30;20053;-89
2022/05/15 01:24:42;;;;;;;2.00;1.08;;;8.30;99.90;;;;;;4732519;30;20056;-90
2022/05/15 01:27:12;;;;;;;2.75;0.80;;;8.80;99.90;;;;;;4717948;30;20064;-88
2022/05/15 01:29:43;;;;;;;4.00;0.90;;;8.20;99.90;;;;;;4717805;30;20103;-87
2022/05/15 01:32:10;;;;;;;2.60;0.70;;;8.80;99.90;;;;;;4732688;30;20140;-90
2022/05/15 01:34:35;;;;;;;1.13;0.70;;;8.20;99.90;;;;;;4732277;30;20064;-87
2022/05/15 01:37:01;;;;;;;2.25;0.70;;;8.40;99.90;;;;;;4752245;30;20117;-87
2022/05/15 01:39:29;;;;;;;1.67;0.60;;;8.10;99.90;;;;;;4739497;30;20095;-88
2022/05/15 01:41:55;;;;;;;1.75;0.52;;;8.10;99.90;;;;;;4753260;30;20210;-87
2022/05/15 01:44:21;;;;;;;1.25;0.40;;;9.00;99.90;;;;;;4764733;30;20059;-87
2022/05/15 01:46:48;;;;;;;0.68;0.50;;;8.00;99.90;;;;;;4773105;30;20056;-89
2022/05/15 01:49:15;;;;;;;1.95;0.60;;;8.00;99.90;;;;;;4770011;30;20130;-87
2022/05/15 01:51:42;;;;;;;2.50;0.82;;;8.30;99.90;;;;;;4774921;30;20394;-87
2022/05/15 01:54:09;;;;;;;0.85;0.60;;;8.60;99.90;;;;;;4739307;30;20147;-90
2022/05/15 01:56:36;;;;;;;3.70;0.60;;;7.90;99.90;;;;;;4772311;30;20411;-87
2022/05/15 01:59:04;;;;;;;2.60;0.75;;;8.50;99.90;;;;;;4771123;30;20502;-88
2022/05/15 02:01:29;;;;;;;2.38;0.40;;;8.90;99.90;;;;;;4767945;30;20147;-87
2022/05/15 02:03:55;;;;;;;2.65;0.70;;;8.20;99.90;;;;;;4768645;30;20051;-87
2022/05/15 02:06:21;;;;;;;0.80;0.50;;;7.90;99.90;;;;;;4760286;30;20109;-88
2022/05/15 02:08:48;;;;;;;3.20;0.60;;;7.80;99.90;;;;;;4769898;30;20135;-88
2022/05/15 02:11:14;;;;;;;1.15;0.60;;;8.60;99.90;;;;;;4767179;30;20052;-87
2022/05/15 02:13:41;;;;;;;1.20;0.60;;;7.90;99.90;;;;;;4753126;30;20130;-89
2022/05/15 02:16:07;;;;;;;1.40;0.70;;;7.80;99.90;;;;;;4768908;30;20051;-89
2022/05/15 02:18:34;;;;;;;1.88;0.80;;;8.40;99.90;;;;;;4776613;30;20063;-91
2022/05/15 02:21:00;;;;;;;2.08;0.80;;;8.00;99.90;;;;;;4769187;30;20059;-89
2022/05/15 02:23:26;;;;;;;2.50;0.93;;;7.90;99.90;;;;;;4776072;30;20054;-89
2022/05/15 02:25:52;;;;;;;1.38;0.80;;;8.10;99.90;;;;;;4757892;30;20057;-89
2022/05/15 02:28:19;;;;;;;2.13;0.80;;;7.70;99.90;;;;;;4754322;30;20055;-89
2022/05/15 02:30:55;;;;;;;2.35;0.88;;;7.70;99.90;;;;;;4768214;30;20064;-88
2022/05/15 02:33:22;;;;;;;4.85;0.77;;;7.70;99.90;;;;;;4769001;30;20052;-88
2022/05/15 02:35:51;;;;;;;2.08;1.25;;;8.20;99.90;;;;;;4769081;30;20406;-89
2022/05/15 02:38:16;;;;;;;4.82;0.90;;;8.70;99.90;;;;;;4768665;30;20055;-87
2022/05/15 02:40:42;;;;;;;1.98;1.10;;;7.80;99.90;;;;;;4753685;30;20056;-87
2022/05/15 02:43:08;;;;;;;4.47;1.20;;;7.70;99.90;;;;;;4759022;30;20056;-91
2022/05/15 02:45:34;;;;;;;2.95;0.80;;;8.60;99.90;;;;;;4754679;30;20060;-89
2022/05/15 02:48:00;;;;;;;2.78;0.93;;;7.70;99.90;;;;;;4758229;30;20060;-88
2022/05/15 02:53:09;;;;;;;2.72;1.00;;;7.60;99.90;;;;;;4768972;30;20088;-87
2022/05/15 02:55:35;;;;;;;2.35;0.90;;;7.60;99.90;;;;;;4768420;30;20472;-88
2022/05/15 02:58:01;;;;;;;1.98;0.90;;;8.60;99.90;;;;;;4768126;30;20058;-90
2022/05/15 03:00:28;;;;;;;1.65;0.70;;;7.60;99.90;;;;;;4753404;30;20067;-89
2022/05/15 03:02:54;;;;;;;1.65;0.70;;;7.60;99.90;;;;;;4752745;30;20066;-87
2022/05/15 03:05:21;;;;;;;3.05;0.60;;;8.00;99.90;;;;;;4757320;30;20498;-88
2022/05/15 03:07:48;;;;;;;1.38;0.80;;;7.30;99.90;;;;;;4740711;30;20125;-87
2022/05/15 03:10:17;;;;;;;2.03;0.60;;;7.90;99.90;;;;;;4772261;30;20135;-87
2022/05/15 03:12:44;;;;;;;0.93;0.70;;;7.90;99.90;;;;;;4748538;30;20076;-88
2022/05/15 03:15:14;;;;;;;2.50;0.80;;;7.40;99.90;;;;;;4756000;30;20612;-89
2022/05/15 03:17:41;;;;;;;3.75;0.77;;;8.30;99.90;;;;;;4756008;30;20070;-89
2022/05/15 03:20:08;;;;;;;1.48;0.90;;;7.30;99.90;;;;;;4772201;30;20059;-89
2022/05/15 03:22:35;;;;;;;2.08;0.70;;;7.40;99.90;;;;;;4753313;30;20091;-87
2022/05/15 03:25:01;;;;;;;1.58;0.60;;;7.30;99.90;;;;;;4768938;30;20079;-87
2022/05/15 03:27:27;;;;;;;1.17;0.50;;;7.30;99.90;;;;;;4778943;30;20071;-87
2022/05/15 03:29:53;;;;;;;3.40;0.50;;;7.30;99.90;;;;;;4770847;30;20051;-89
2022/05/15 03:32:19;;;;;;;0.52;0.43;;;7.20;99.90;;;;;;4771629;30;20060;-86
2022/05/15 03:34:44;;;;;;;1.05;0.50;;;7.10;99.90;;;;;;4776118;30;20121;-89
2022/05/15 03:37:10;;;;;;;1.08;0.52;;;7.20;99.90;;;;;;4773180;30;20410;-89
2022/05/15 03:39:36;;;;;;;1.75;0.75;;;7.80;99.90;;;;;;4765533;30;20052;-89
2022/05/15 03:42:02;;;;;;;1.13;0.50;;;7.70;99.90;;;;;;4759903;30;20562;-88
2022/05/15 03:44:28;;;;;;;2.03;0.80;;;7.10;99.90;;;;;;4771806;30;20051;-91
2022/05/15 03:46:54;;;;;;;0.57;0.50;;;7.10;99.90;;;;;;4771522;30;20052;-88
2022/05/15 03:49:20;;;;;;;2.95;0.68;;;7.70;99.90;;;;;;4755616;30;20063;-88
2022/05/15 03:51:46;;;;;;;1.38;0.60;;;7.40;99.90;;;;;;4769956;30;20170;-89
2022/05/15 03:54:11;;;;;;;2.40;0.73;;;7.90;99.90;;;;;;4755834;30;20052;-89
2022/05/15 03:56:50;;;;;;;1.65;0.70;;;7.60;99.90;;;;;;4778101;30;20401;-88
2022/05/15 03:59:23;;;;;;;2.53;0.60;;;7.70;99.90;;;;;;4770381;30;20127;-90
2022/05/15 04:01:49;;;;;;;1.50;0.70;;;7.00;99.90;;;;;;4770861;30;20098;-88
2022/05/15 04:04:15;;;;;;;1.00;0.52;;;7.10;99.90;;;;;;4770491;30;20079;-90
2022/05/15 04:06:40;;;;;;;1.05;0.60;;;7.80;99.90;;;;;;4770433;30;20055;-87
2022/05/15 04:09:06;;;;;;;3.10;0.60;;;7.10;99.90;;;;;;4773531;30;20437;-88
2022/05/15 04:11:33;;;;;;;2.28;0.80;;;6.60;99.90;;;;;;4774846;30;20390;-88
2022/05/15 04:13:59;;;;;;;1.30;0.68;;;7.00;99.90;;;;;;4778028;30;20737;-91
2022/05/15 04:16:25;;;;;;;2.38;0.65;;;7.00;99.90;;;;;;4770771;30;20062;-89
2022/05/15 04:18:50;;;;;;;1.63;0.68;;;7.10;99.90;;;;;;4761914;29;20413;-87
2022/05/15 04:21:16;;;;;;;1.40;0.60;;;7.20;99.90;;;;;;4776613;30;20406;-88
2022/05/15 04:23:42;;;;;;;0.60;0.50;;;7.10;99.90;;;;;;4770673;30;20136;-89
2022/05/15 04:26:08;;;;;;;2.10;0.63;;;6.80;99.90;;;;;;4754769;30;20052;-86
2022/05/15 04:28:35;;;;;;;1.08;0.52;;;7.20;99.90;;;;;;4743801;30;20063;-90
2022/05/15 04:31:02;;;;;;;1.77;0.47;;;7.70;99.90;;;;;;4772346;30;20090;-87
2022/05/15 04:33:27;;;;;;;1.02;0.55;;;6.80;99.90;;;;;;4768289;30;20128;-86
2022/05/15 04:35:53;;;;;;;1.40;0.60;;;7.30;99.90;;;;;;4754879;30;20051;-88
2022/05/15 04:38:19;;;;;;;3.30;0.60;;;7.60;99.90;;;;;;4777244;30;20488;-88
2022/05/15 04:40:44;;;;;;;2.60;0.60;;;7.40;99.90;;;;;;4757824;30;20082;-90
2022/05/15 04:43:10;;;;;;;1.73;0.68;;;7.50;99.90;;;;;;4772902;30;20086;-88
2022/05/15 04:45:36;;;;;;;1.55;0.60;;;7.50;99.90;;;;;;4769334;30;20535;-88
2022/05/15 04:48:02;;;;;;;2.08;0.90;;;7.60;99.90;;;;;;4770415;30;20047;-86
2022/05/15 04:50:28;;;;;;;1.63;0.70;;;7.50;99.90;;;;;;4749116;30;20071;-86
2022/05/15 04:52:53;;;;;;;2.35;0.60;;;8.50;99.90;;;;;;4754184;30;20391;-91
2022/05/15 04:55:20;;;;;;;3.22;0.95;;;7.70;99.90;;;;;;4770365;30;20593;-88
2022/05/15 04:57:46;;;;;;;3.75;0.90;;;7.80;99.90;;;;;;4770744;30;20490;-87
2022/05/15 05:00:17;;;;;;;1.70;0.60;;;8.20;99.90;;;;;;4782700;30;20056;-90
2022/05/15 05:02:43;;;;;;;4.63;1.20;;;7.90;99.90;;;;;;4769867;30;20130;-92
2022/05/15 05:05:10;;;;;;;3.08;0.90;;;7.40;99.90;;;;;;4770671;30;20064;-91
2022/05/15 05:07:35;;;;;;;3.92;0.80;;;8.30;99.90;;;;;;4769062;30;20173;-91
2022/05/15 05:10:01;;;;;;;2.38;0.95;;;8.00;99.90;;;;;;4784796;30;20251;-92
2022/05/15 05:12:27;;;;;;;1.60;0.65;;;8.80;99.90;;;;;;4769607;30;20059;-93
2022/05/15 05:14:52;;;;;;;3.92;1.00;;;8.30;99.90;;;;;;4776244;30;20056;-92
2022/05/15 05:17:18;;;;;;;3.08;1.00;;;8.30;99.90;;;;;;4775712;30;20055;-91
2022/05/15 05:19:44;;;;;;;3.35;0.90;;;9.30;99.90;;;;;;4768998;30;20052;-91
2022/05/15 05:22:10;;;;;;;3.58;1.05;;;8.60;99.90;;;;;;4754042;30;20468;-92
2022/05/15 05:24:35;;;;;;;3.80;0.75;;;8.80;99.90;;;;;;4770342;30;20415;-91
2022/05/15 05:27:01;;;;;;;4.45;0.82;;;8.90;99.90;;;;;;4769689;30;20055;-90
2022/05/15 05:29:27;;;;;;;2.55;1.13;;;9.00;99.90;;;;;;4760554;30;20394;-90
2022/05/15 05:31:53;;;;;;;2.58;0.95;;;9.20;99.90;;;;;;4767898;30;20070;-90
2022/05/15 05:34:19;;;;;;;4.63;1.60;;;9.40;99.90;;;;;;4768890;30;20501;-90
2022/05/15 05:36:46;;;;;;;6.43;1.73;;;9.60;99.90;;;;;;4769453;30;20051;-91
2022/05/15 05:39:11;;;;;;;6.78;1.42;;;9.70;99.90;;;;;;4739156;30;20095;-92
2022/05/15 05:41:37;;;;;;;4.85;1.50;;;9.80;99.90;;;;;;4761336;30;20075;-90
2022/05/15 05:44:03;;;;;;;4.38;1.10;;;9.60;99.90;;;;;;4740600;30;20051;-91
2022/05/15 05:46:29;;;;;;;4.65;1.17;;;10.20;99.90;;;;;;4776518;30;20116;-91
2022/05/15 05:48:57;;;;;;;7.88;1.30;;;10.30;99.90;;;;;;4773504;30;20047;-90
2022/05/15 05:51:23;;;;;;;9.27;1.50;;;10.50;99.90;;;;;;4756298;30;20067;-86
2022/05/15 05:53:49;;;;;;;8.02;1.33;;;10.90;99.90;;;;;;4758160;30;20064;-87
2022/05/15 05:56:15;;;;;;;5.32;1.40;;;11.30;99.90;;;;;;4775677;30;20517;-87
2022/05/15 05:58:41;;;;;;;11.02;1.85;;;11.10;99.90;;;;;;4773742;30;20158;-87
2022/05/15 06:01:07;;;;;;;8.35;1.52;;;11.10;99.90;;;;;;4757267;30;20055;-87
2022/05/15 06:06:18;;;;;;;8.98;1.70;;;11.60;99.90;;;;;;4753419;30;20074;-88
2022/05/15 06:08:44;;;;;;;7.65;1.60;;;11.50;99.90;;;;;;4752383;30;20047;-87
2022/05/15 06:11:10;;;;;;;5.03;1.38;;;11.70;99.90;;;;;;4775789;30;20510;-87
2022/05/15 06:13:39;;;;;;;4.38;1.48;;;11.80;99.90;;;;;;4769635;30;20142;-86
2022/05/15 06:16:07;;;;;;;10.68;1.83;;;11.90;99.90;;;;;;4775511;30;20059;-85
2022/05/15 06:18:39;;;;;;;12.98;2.63;;;12.50;99.90;;;;;;4768245;30;20197;-85
2022/05/15 06:21:05;;;;;;;9.77;1.90;;;12.30;99.90;;;;;;4738259;30;20105;-86
2022/05/15 06:23:33;;;;;;;7.93;1.30;;;12.40;99.90;;;;;;4769500;30;20090;-85
2022/05/15 06:26:04;;;;;;;6.68;1.50;;;12.50;99.90;;;;;;4769309;30;20063;-86
2022/05/15 06:28:30;;;;;;;7.22;1.40;;;12.60;99.90;;;;;;4761642;30;20092;-87
2022/05/15 06:30:56;;;;;;;3.33;1.20;;;12.80;99.90;;;;;;4759931;30;20056;-84
2022/05/15 06:33:21;;;;;;;6.65;1.55;;;13.00;99.90;;;;;;4753510;30;20110;-83
2022/05/15 06:35:47;;;;;;;9.98;1.70;;;13.10;99.90;;;;;;4769159;30;20058;-86
2022/05/15 06:38:13;;;;;;;11.20;2.10;;;13.20;99.90;;;;;;4774500;30;20063;-89
2022/05/15 06:40:39;;;;;;;3.22;1.23;;;13.30;99.90;;;;;;4759020;30;20476;-86
2022/05/15 06:43:04;;;;;;;5.40;1.52;;;13.50;99.90;;;;;;4761415;30;20054;-84
2022/05/15 06:45:30;;;;;;;5.95;2.20;;;13.60;99.90;;;;;;4777914;30;20421;-87
2022/05/15 06:47:56;;;;;;;9.80;1.58;;;13.80;99.90;;;;;;4772643;30;20051;-89
2022/05/15 06:50:22;;;;;;;6.57;1.63;;;13.90;99.90;;;;;;4770638;30;20514;-87
2022/05/15 06:52:47;;;;;;;6.80;1.27;;;14.00;99.90;;;;;;4777761;30;20052;-86
2022/05/15 06:55:23;;;;;;;11.43;1.83;;;14.20;99.90;;;;;;4756485;30;20113;-87
2022/05/15 06:57:50;;;;;;;5.10;1.38;;;14.30;99.90;;;;;;4765437;30;20056;-88
2022/05/15 07:00:27;;;;;;;9.50;1.80;;;14.50;99.90;;;;;;4778093;30;20051;-90
2022/05/15 07:02:53;;;;;;;8.73;1.63;;;14.50;99.90;;;;;;4778263;30;20048;-87
2022/05/15 07:05:31;;;;;;;5.32;1.50;;;14.70;99.90;;;;;;4756479;30;20070;-86
2022/05/15 07:07:56;;;;;;;7.03;1.13;;;14.40;99.90;;;;;;4764703;30;20131;-90
2022/05/15 07:10:22;;;;;;;6.95;1.13;;;15.00;99.90;;;;;;4770908;30;20138;-89
2022/05/15 07:12:49;;;;;;;4.35;1.35;;;15.20;99.90;;;;;;4771633;30;20147;-85
2022/05/15 07:15:18;;;;;;;5.43;1.10;;;15.40;99.90;;;;;;4772436;30;20051;-91
2022/05/15 07:17:44;;;;;;;6.80;1.30;;;15.40;99.90;;;;;;4779886;30;20086;-86
2022/05/15 07:20:11;;;;;;;7.22;1.42;;;15.60;99.90;;;;;;4762348;30;20098;-90
2022/05/15 07:22:37;;;;;;;6.28;0.90;;;15.80;99.90;;;;;;4755959;30;20059;-92
2022/05/15 07:25:03;;;;;;;5.00;1.25;;;16.00;99.90;;;;;;4772464;30;20048;-92
2022/05/15 07:27:28;;;;;;;10.77;1.65;;;16.10;99.90;;;;;;4772550;30;20075;-91
2022/05/15 07:29:54;;;;;;;6.85;1.33;;;16.20;99.90;;;;;;4741084;30;20066;-90
2022/05/15 07:32:20;;;;;;;4.03;1.08;;;16.40;99.90;;;;;;4771832;30;20052;-91
2022/05/15 07:34:46;;;;;;;6.80;1.08;;;16.50;99.90;;;;;;4770641;30;20056;-92
2022/05/15 07:37:12;;;;;;;5.22;0.93;;;16.70;99.90;;;;;;4775956;30;20386;-91
2022/05/15 07:39:38;;;;;;;4.55;1.10;;;16.80;99.90;;;;;;4780488;30;20142;-93
2022/05/15 07:42:04;;;;;;;7.30;1.38;;;17.00;99.90;;;;;;4777263;30;20142;-93
2022/05/15 07:44:30;;;;;;;6.90;1.20;;;17.10;99.90;;;;;;4772075;30;20507;-90
2022/05/15 07:46:56;;;;;;;6.78;1.45;;;17.20;99.90;;;;;;4755872;30;20119;-92
2022/05/15 07:49:22;;;;;;;6.68;1.92;;;17.30;99.90;;;;;;4755622;30;20051;-91
2022/05/15 07:51:48;;;;;;;8.57;1.27;;;17.40;99.90;;;;;;4770293;30;20487;-91
2022/05/15 07:54:18;;;;;;;6.22;1.08;;;17.40;99.90;;;;;;4769561;30;20078;-92
2022/05/15 07:56:44;;;;;;;4.72;1.00;;;17.60;99.90;;;;;;4755481;30;20411;-94
2022/05/15 07:59:12;;;;;;;3.88;0.82;;;17.80;99.90;;;;;;4769968;30;20067;-92
2022/05/15 08:01:38;;;;;;;5.15;0.80;;;18.00;99.90;;;;;;4770733;30;20134;-93
2022/05/15 08:04:05;;;;;;;4.63;1.38;;;18.10;99.90;;;;;;4771750;30;20055;-92
2022/05/15 08:14:36;;;;;;;5.40;0.90;;;18.70;99.90;;;;;;4766518;30;20058;-89
2022/05/15 08:17:02;;;;;;;4.18;1.13;;;18.80;99.90;;;;;;4754072;30;20063;-93
2022/05/15 08:24:56;;;;;;;4.95;0.63;;;19.00;99.90;;;;;;4737671;30;20123;-92
2022/05/15 08:27:22;;;;;;;3.30;0.77;;;19.20;99.90;;;;;;4753904;30;20139;-91
2022/05/15 08:29:47;;;;;;;6.20;0.77;;;19.20;99.90;;;;;;4753892;30;20064;-90
2022/05/15 08:32:13;;;;;;;3.85;0.90;;;19.30;99.90;;;;;;4752072;30;20051;-90
2022/05/15 08:34:41;;;;;;;3.70;0.70;;;19.50;99.90;;;;;;4752878;30;20071;-93
2022/05/15 08:37:07;;;;;;;4.93;0.80;;;19.70;99.90;;;;;;4752714;30;20056;-93
2022/05/15 08:39:33;;;;;;;1.17;0.30;;;19.90;99.90;;;;;;4752295;30;20059;-91
2022/05/15 08:42:20;;;;;;;4.45;0.52;;;20.00;99.90;;;;;;4744319;30;20056;-91
2022/05/15 08:44:46;;;;;;;3.35;0.55;;;20.10;99.90;;;;;;4752274;30;20052;-92
2022/05/15 08:47:18;;;;;;;4.47;0.80;;;20.30;99.90;;;;;;4752152;30;20060;-91
2022/05/15 08:49:57;;;;;;;2.65;0.50;;;20.30;98.60;;;;;;4750891;30;20106;-82
2022/05/15 08:52:41;;;;;;;4.47;0.75;;;20.40;96.70;;;;;;4729464;30;20267;-84
2022/05/15 08:55:34;;;;;;;4.63;0.50;;;20.30;97.80;;;;;;4756997;30;20063;-82
2022/05/15 08:58:22;;;;;;;2.00;0.40;;;20.50;99.50;;;;;;4757354;30;20461;-83
2022/05/15 09:00:51;;;;;;;3.05;0.70;;;20.70;96.90;;;;;;4745811;30;20048;-87
2022/05/15 09:03:19;;;;;;;5.78;0.60;;;20.70;98.20;;;;;;4732320;30;20503;-84
2022/05/15 09:06:06;;;;;;;3.58;0.70;;;21.00;96.90;;;;;;4737271;30;20064;-84
2022/05/15 09:09:20;;;;;;;5.13;0.90;;;20.90;93.70;;;;;;4751763;30;20063;-85
2022/05/15 09:12:22;;;;;;;2.58;0.73;;;21.10;96.00;;;;;;4767374;30;20063;-84
2022/05/15 09:15:20;;;;;;;3.67;0.50;;;21.40;94.30;;;;;;4785122;29;20098;-86
2022/05/15 09:17:53;;;;;;;2.15;0.43;;;21.70;94.20;;;;;;4801978;29;20564;-86
2022/05/15 09:20:45;;;;;;;3.55;0.73;;;21.70;91.50;;;;;;4786134;29;20063;-87
2022/05/15 09:23:23;;;;;;;5.18;0.93;;;21.90;91.10;;;;;;4797391;29;20054;-86
2022/05/15 09:25:58;;;;;;;3.45;0.85;;;22.00;94.90;;;;;;4779961;29;20540;-87
2022/05/15 09:28:27;;;;;;;5.00;0.88;;;22.00;92.10;;;;;;4787448;29;20057;-90
2022/05/15 09:30:58;;;;;;;4.88;0.60;;;22.20;91.60;;;;;;4795786;29;20119;-87
2022/05/15 09:33:34;;;;;;;3.65;0.50;;;21.80;90.90;;;;;;4802601;29;20072;-88
2022/05/15 09:36:34;;;;;;;3.10;0.80;;;21.70;90.00;;;;;;4770696;29;20112;-88
2022/05/15 09:39:23;;;;;;;3.65;0.68;;;21.90;88.00;;;;;;4780098;29;20054;-89
2022/05/15 09:45:18;;;;;;;4.93;0.88;;;21.80;91.70;;;;;;4797262;29;20536;-87
2022/05/15 09:48:00;;;;;;;3.42;0.80;;;21.60;90.40;;;;;;4789628;29;20412;-86
2022/05/15 09:50:59;;;;;;;6.43;1.08;;;21.70;90.00;;;;;;4773964;30;20055;-88
2022/05/15 09:53:42;;;;;;;5.63;0.80;;;21.90;90.80;;;;;;4764180;30;20052;-90
2022/05/15 09:56:11;;;;;;;5.90;0.80;;;22.00;87.50;;;;;;4761261;30;20063;-87
2022/05/15 09:58:58;;;;;;;3.95;0.93;;;22.00;90.20;;;;;;4753321;30;20130;-87
2022/05/15 10:01:55;;;;;;;3.40;0.80;;;22.00;83.90;;;;;;4764186;30;20048;-91
2022/05/15 10:04:30;;;;;;;7.18;0.90;;;22.10;83.00;;;;;;4732923;30;20066;-89
2022/05/15 10:07:00;;;;;;;;;;;22.10;80.90;;;;;;4769562;30;20055;-89
2022/05/15 10:09:39;;;;;;;6.88;0.82;;;22.00;82.00;;;;;;4753682;30;19968;-89
2022/05/15 10:12:15;;;;;;;1.15;0.55;;;22.30;85.40;;;;;;4768313;30;20186;-90
2022/05/15 10:14:46;;;;;;;4.47;0.50;;;22.20;83.00;;;;;;4774196;29;20528;-88
2022/05/15 10:17:14;;;;;;;5.03;1.10;;;22.40;81.60;;;;;;4774972;30;20071;-91
2022/05/15 10:20:16;;;;;;;6.13;1.23;;;22.50;82.70;;;;;;4779083;30;20055;-92
2022/05/15 10:23:04;;;;;;;6.05;0.80;;;22.60;77.60;;;;;;4714033;30;20071;-90
2022/05/15 10:25:43;;;;;;;4.03;0.60;;;22.50;78.20;;;;;;4712658;30;20072;-90
2022/05/15 10:28:27;;;;;;;2.35;0.60;;;22.80;84.10;;;;;;4717228;30;20546;-90
2022/05/15 10:31:29;;;;;;;3.15;0.65;;;22.90;82.20;;;;;;4703097;30;20115;-89
2022/05/15 10:34:01;;;;;;;3.88;0.70;;;22.90;75.10;;;;;;4714620;30;20061;-88
2022/05/15 10:36:45;;;;;;;6.32;0.80;;;23.20;76.00;;;;;;4723463;30;20071;-86
2022/05/15 10:39:49;;;;;;;4.72;0.70;;;23.30;73.80;;;;;;4717281;30;20123;-86
2022/05/15 10:42:42;;;;;;;5.80;0.73;;;23.60;73.40;;;;;;4701373;30;20073;-86
2022/05/15 10:45:51;;;;;;;4.03;0.60;;;23.70;70.60;;;;;;4692362;30;20065;-86
2022/05/15 10:48:35;;;;;;;4.22;0.85;;;23.70;69.70;;;;;;4640807;30;20202;-88
2022/05/15 10:51:29;;;;;;;5.15;0.80;;;23.20;68.80;;;;;;4626701;30;20067;-85
2022/05/15 10:57:24;;;;;;;3.72;0.70;;;23.10;70.10;;;;;;4650097;30;20147;-89
2022/05/15 11:00:14;;;;;;;6.90;0.80;;;23.30;67.70;;;;;;4630260;30;20058;-86
2022/05/15 11:03:06;;;;;;;2.78;0.85;;;23.50;70.80;;;;;;4628918;30;20078;-86
2022/05/15 11:05:40;;;;;;;4.70;0.65;;;23.40;68.80;;;;;;4630224;30;20063;-86
2022/05/15 11:08:27;;;;;;;2.60;0.50;;;23.40;67.40;;;;;;4647805;30;20058;-86
2022/05/15 11:11:14;;;;;;;2.13;0.68;;;23.60;66.30;;;;;;4634314;30;20081;-89
2022/05/15 11:14:03;;;;;;;2.58;0.55;;;23.80;65.50;;;;;;4628794;30;20067;-88
2022/05/15 11:16:50;;;;;;;3.97;0.40;;;23.90;66.00;;;;;;4633401;30;20578;-87
2022/05/15 11:19:35;;;;;;;2.53;0.55;;;24.10;66.00;;;;;;4633701;30;20051;-89
2022/05/15 11:22:03;;;;;;;2.58;0.40;;;24.10;63.60;;;;;;4648218;30;20172;-91
2022/05/15 11:25:00;;;;;;;3.25;0.60;;;24.10;61.00;;;;;;4653992;30;20061;-89
2022/05/15 11:27:38;;;;;;;3.13;0.50;;;24.20;62.50;;;;;;4698890;30;20070;-89
2022/05/15 11:30:14;;;;;;;3.47;0.60;;;24.30;62.00;;;;;;4683700;30;20123;-89
2022/05/15 11:33:08;;;;;;;3.53;0.60;;;24.20;59.30;;;;;;4692731;30;20053;-89
2022/05/15 11:36:27;;;;;;;4.07;0.65;;;24.10;61.60;;;;;;4703904;30;20042;-90
2022/05/15 11:39:07;;;;;;;4.30;0.60;;;24.10;62.40;;;;;;4679599;30;20075;-91
2022/05/15 11:42:08;;;;;;;5.45;0.50;;;24.20;62.30;;;;;;4699015;30;20053;-90
2022/05/15 11:44:42;;;;;;;2.60;0.50;;;24.10;61.70;;;;;;4684493;30;20061;-90
2022/05/15 11:47:23;;;;;;;5.47;0.85;;;24.00;58.30;;;;;;4670700;30;20052;-89
2022/05/15 11:50:05;;;;;;;2.08;0.50;;;24.30;62.20;;;;;;4679070;30;20467;-89
2022/05/15 11:53:10;;;;;;;3.28;0.60;;;24.10;62.20;;;;;;4684270;30;20061;-89
2022/05/15 11:55:43;;;;;;;5.18;0.70;;;24.10;61.90;;;;;;4680695;30;20058;-89
2022/05/15 11:58:17;;;;;;;3.35;0.60;;;23.90;64.90;;;;;;4667192;30;20097;-90
2022/05/15 12:01:17;;;;;;;3.60;0.60;;;23.80;64.50;;;;;;4666899;30;20053;-90
2022/05/15 12:03:57;;;;;;;3.83;0.55;;;24.00;61.80;;;;;;4674945;30;20060;-89
2022/05/15 12:06:29;;;;;;;5.93;0.93;;;24.20;62.80;;;;;;4680534;30;20065;-89
2022/05/15 12:09:20;;;;;;;3.72;0.60;;;23.90;60.20;;;;;;4661501;30;20123;-90
2022/05/15 12:12:17;;;;;;;3.92;0.65;;;23.70;61.00;;;;;;4674029;30;20062;-90
2022/05/15 12:15:04;;;;;;;4.35;0.82;;;23.40;61.50;;;;;;4700846;30;20194;-89
2022/05/15 12:17:57;;;;;;;2.58;0.65;;;23.30;62.50;;;;;;4700894;30;20076;-90
2022/05/15 12:20:29;;;;;;;3.22;0.63;;;23.20;62.60;;;;;;4700473;30;20053;-90
2022/05/15 12:23:06;;;;;;;4.00;0.65;;;23.30;66.60;;;;;;4694434;30;20414;-89
2022/05/15 12:25:39;;;;;;;3.03;0.63;;;23.40;62.00;;;;;;4700792;30;20065;-89
2022/05/15 12:31:39;;;;;;;4.32;1.23;;;23.80;63.10;;;;;;4706558;30;20051;-90
2022/05/15 12:34:34;;;;;;;4.95;0.68;;;23.60;62.70;;;;;;4764913;30;20055;-90
2022/05/15 12:37:21;;;;;;;2.90;0.50;;;23.80;61.40;;;;;;4712823;30;20055;-89
2022/05/15 12:39:51;;;;;;;3.88;0.50;;;23.50;60.00;;;;;;4717826;30;20065;-89
2022/05/15 12:42:25;;;;;;;5.50;1.08;;;23.50;61.80;;;;;;4718194;30;20064;-89
2022/05/15 12:45:12;;;;;;;4.68;0.82;;;23.60;61.70;;;;;;4717843;30;20540;-90
2022/05/15 12:48:08;;;;;;;3.78;0.60;;;23.70;62.10;;;;;;4732428;30;20060;-90
2022/05/15 12:50:47;;;;;;;2.83;0.82;;;23.90;60.90;;;;;;4715764;30;20057;-89
2022/05/15 12:53:39;;;;;;;3.10;0.60;;;24.10;60.80;;;;;;4727513;30;20454;-90
2022/05/15 12:56:15;;;;;;;3.05;0.77;;;24.30;63.50;;;;;;4732869;30;20060;-90
2022/05/15 12:58:42;;;;;;;5.32;1.30;;;24.60;59.00;;;;;;4715444;30;20053;-89
2022/05/15 13:01:22;;;;;;;5.30;0.80;;;24.60;62.10;;;;;;4718213;30;20175;-89
2022/05/15 13:03:56;;;;;;;5.15;0.70;;;24.70;68.80;;;;;;4731935;30;20064;-90
2022/05/15 13:06:46;;;;;;;5.10;1.00;;;24.60;64.20;;;;;;4717849;30;20144;-89
2022/05/15 13:09:20;;;;;;;5.65;1.17;;;24.80;71.20;;;;;;4732233;30;20045;-91
2022/05/15 13:12:25;;;;;;;3.83;0.80;;;24.30;70.60;;;;;;4732247;30;20069;-91
2022/05/15 13:15:01;;;;;;;4.95;0.90;;;24.60;67.20;;;;;;4765509;30;20301;-90
2022/05/15 13:17:53;;;;;;;4.13;0.90;;;24.30;75.80;;;;;;4753564;30;20517;-91
2022/05/15 13:20:35;;;;;;;6.53;1.27;;;24.00;75.70;;;;;;4768930;30;20055;-89
2022/05/15 13:23:12;;;;;;;7.13;1.05;;;24.10;78.20;;;;;;4754003;30;20132;-90
2022/05/15 13:25:53;;;;;;;3.40;1.10;;;24.10;77.40;;;;;;4753834;30;20060;-89
2022/05/15 13:28:35;;;;;;;3.22;1.05;;;24.30;79.00;;;;;;4762986;30;20056;-89
2022/05/15 13:31:04;;;;;;;5.47;1.25;;;24.40;76.30;;;;;;4751632;30;20565;-90
2022/05/15 13:33:37;;;;;;;3.90;0.80;;;24.30;79.00;;;;;;4768608;30;20060;-90
2022/05/15 13:36:09;;;;;;;5.28;1.02;;;24.10;76.30;;;;;;4753516;30;20101;-90
2022/05/15 13:44:38;;;;;;;5.97;1.20;;;24.00;81.30;;;;;;4753414;30;20047;-90
2022/05/15 13:47:23;;;;;;;4.32;1.25;;;23.80;81.60;;;;;;4753980;30;20067;-90
2022/05/15 13:49:57;;;;;;;9.52;1.20;;;23.70;81.80;;;;;;4769062;30;20059;-89
2022/05/15 13:52:52;;;;;;;8.38;1.17;;;23.90;88.60;;;;;;4756263;30;20094;-90
2022/05/15 13:55:46;;;;;;;4.30;1.00;;;24.10;88.80;;;;;;4700390;30;20067;-90
2022/05/15 13:58:19;;;;;;;4.85;1.10;;;24.20;90.50;;;;;;4706761;30;20618;-90